Time;durP1;ratioP1;P1;durP2;ratioP2;P2;SDS_P1;SDS_P2;PMS_P1;PMS_P2;Temp;Humidity;BMP_temperature;BMP_pressure;BME280_temperature;BME280_humidity;BME280_pressure;Samples;Min_cycle;Max_cycle;Signal;HPM_P1;HPM_P2
2021/01/30 00:01:38;;;;;;;29.90;18.48;;;;;;;0.79;100.00;99640.03;4932157;29;20044;-82
2021/01/30 00:04:04;;;;;;;27.42;18.67;;;;;;;0.83;100.00;99652.00;4932646;29;20083;-82
2021/01/30 00:06:29;;;;;;;28.92;19.90;;;;;;;0.77;100.00;99649.88;4932833;29;20071;-83
2021/01/30 00:08:55;;;;;;;33.25;21.92;;;;;;;0.77;100.00;99650.72;4925651;29;20053;-83
2021/01/30 00:11:20;;;;;;;32.63;23.55;;;;;;;0.68;100.00;99654.97;4927270;28;20290;-83
2021/01/30 00:13:45;;;;;;;33.67;24.27;;;;;;;0.63;100.00;99657.19;4927172;29;20131;-83
2021/01/30 00:16:14;;;;;;;35.40;25.35;;;;;;;0.56;100.00;99671.84;4926471;28;20122;-83
2021/01/30 00:18:39;;;;;;;36.17;25.73;;;;;;;0.52;100.00;99673.09;4926580;29;20059;-83
2021/01/30 00:21:05;;;;;;;34.88;26.33;;;;;;;0.55;100.00;99670.19;4928073;29;20047;-82
2021/01/30 00:23:30;;;;;;;35.78;25.02;;;;;;;0.54;100.00;99692.25;4931485;29;20055;-83
2021/01/30 00:25:55;;;;;;;36.40;26.70;;;;;;;0.56;100.00;99692.97;4933942;29;20051;-83
2021/01/30 00:28:21;;;;;;;35.45;26.20;;;;;;;0.55;100.00;99701.03;4932428;28;20054;-83
2021/01/30 00:30:46;;;;;;;34.63;23.67;;;;;;;0.41;100.00;99700.34;4930012;28;20048;-83
2021/01/30 00:33:11;;;;;;;34.28;24.10;;;;;;;0.45;100.00;99701.75;4919520;29;20056;-83
2021/01/30 00:35:37;;;;;;;32.90;25.95;;;;;;;0.45;100.00;99701.75;4933700;28;20054;-83
2021/01/30 00:38:03;;;;;;;30.48;23.20;;;;;;;0.38;100.00;99707.69;4930404;28;20043;-83
2021/01/30 00:40:29;;;;;;;31.25;22.95;;;;;;;0.41;100.00;99718.84;4926056;29;20568;-83
2021/01/30 00:42:54;;;;;;;27.83;21.25;;;;;;;0.37;100.00;99727.13;4932519;29;20097;-83
2021/01/30 00:45:23;;;;;;;24.63;20.02;;;;;;;0.31;100.00;99724.97;4928481;29;20047;-83
2021/01/30 00:47:49;;;;;;;26.13;20.85;;;;;;;0.31;100.00;99714.41;4928480;29;20074;-83
2021/01/30 00:50:16;;;;;;;26.08;19.00;;;;;;;0.22;100.00;99722.13;4947206;28;20063;-83
2021/01/30 00:52:42;;;;;;;27.13;20.15;;;;;;;0.27;100.00;99719.13;4943675;28;20048;-83
2021/01/30 00:55:10;;;;;;;28.38;19.92;;;;;;;0.21;100.00;99720.44;4931282;28;20192;-83
2021/01/30 00:57:35;;;;;;;27.95;21.48;;;;;;;0.28;100.00;99741.06;4929127;29;20047;-83
2021/01/30 01:00:00;;;;;;;33.72;23.13;;;;;;;0.22;100.00;99731.84;4929363;29;20040;-83
2021/01/30 01:02:26;;;;;;;27.90;20.85;;;;;;;0.04;100.00;99728.88;4934796;29;20055;-83
2021/01/30 01:04:51;;;;;;;30.75;22.13;;;;;;;0.13;100.00;99743.97;4921526;28;20043;-83
2021/01/30 01:07:17;;;;;;;30.80;23.10;;;;;;;0.16;100.00;99743.72;4916151;29;20087;-83
2021/01/30 01:09:42;;;;;;;31.48;23.73;;;;;;;0.13;100.00;99746.59;4951098;28;20047;-83
2021/01/30 01:12:08;;;;;;;32.42;23.13;;;;;;;0.11;100.00;99751.16;4946955;28;20051;-83
2021/01/30 01:14:33;;;;;;;34.42;24.73;;;;;;;0.17;100.00;99763.88;4948824;28;20043;-83
2021/01/30 01:16:58;;;;;;;31.95;23.35;;;;;;;0.18;100.00;99765.56;4944424;28;20078;-83
2021/01/30 01:19:24;;;;;;;32.15;24.58;;;;;;;0.06;100.00;99766.53;4951579;28;20401;-83
2021/01/30 01:21:51;;;;;;;30.95;23.73;;;;;;;0.15;100.00;99765.81;4946928;28;20056;-83
2021/01/30 01:24:17;;;;;;;34.22;25.13;;;;;;;0.15;100.00;99763.16;4950240;28;20044;-83
2021/01/30 01:26:45;;;;;;;33.25;24.75;;;;;;;0.16;100.00;99770.09;4950465;28;20051;-83
2021/01/30 01:29:12;;;;;;;30.50;24.80;;;;;;;0.19;100.00;99767.22;4949675;28;20047;-83
2021/01/30 01:31:38;;;;;;;30.33;23.00;;;;;;;0.07;100.00;99776.13;4929713;29;20051;-83
2021/01/30 01:34:03;;;;;;;30.30;24.45;;;;;;;0.07;100.00;99778.75;4951992;28;20039;-83
2021/01/30 01:36:29;;;;;;;34.72;24.65;;;;;;;0.00;100.00;99801.31;4951857;28;20043;-83
2021/01/30 01:38:54;;;;;;;30.15;23.42;;;;;;;0.11;100.00;99803.94;4958247;28;20051;-83
2021/01/30 01:41:19;;;;;;;27.30;20.40;;;;;;;0.11;100.00;99789.91;4957629;28;20042;-83
2021/01/30 01:43:45;;;;;;;27.20;20.35;;;;;;;0.06;100.00;99790.28;4960284;28;20053;-83
2021/01/30 01:46:10;;;;;;;27.23;20.63;;;;;;;0.03;100.00;99789.66;4939485;28;20067;-83
2021/01/30 01:48:41;;;;;;;26.00;19.42;;;;;;;0.02;100.00;99798.53;4957324;28;20047;-83
2021/01/30 01:51:10;;;;;;;27.27;19.73;;;;;;;0.01;100.00;99781.88;4952754;28;20126;-83
2021/01/30 01:53:38;;;;;;;;;;;;;;;0.05;100.00;99788.59;4959599;28;20060;-83
2021/01/30 01:56:26;;;;;;;27.48;20.17;;;;;;;-0.08;100.00;99795.81;4953354;28;20296;-83
2021/01/30 01:58:56;;;;;;;27.42;19.85;;;;;;;-0.12;100.00;99799.63;4953660;28;20091;-83
2021/01/30 02:01:21;;;;;;;28.20;20.67;;;;;;;-0.09;100.00;99794.94;4951767;28;20094;-83
2021/01/30 02:03:55;;;;;;;27.30;20.02;;;;;;;-0.01;100.00;99799.63;4941958;28;20066;-83
2021/01/30 02:06:21;;;;;;;27.77;19.30;;;;;;;-0.06;100.00;99797.38;4957494;28;20047;-83
2021/01/30 02:08:48;;;;;;;24.50;19.48;;;;;;;0.12;100.00;99788.97;4938390;28;20047;-83
2021/01/30 02:11:14;;;;;;;25.98;19.08;;;;;;;-0.04;100.00;99805.97;4951551;28;20051;-83
2021/01/30 02:13:47;;;;;;;24.73;19.98;;;;;;;-0.06;100.00;99801.78;4951438;28;20503;-83
2021/01/30 02:16:49;;;;;;;26.15;18.70;;;;;;;-0.02;100.00;99804.06;4943181;28;20047;-83
2021/01/30 02:19:59;;;;;;;26.52;19.42;;;;;;;-0.13;100.00;99808.50;4942862;28;20074;-83
2021/01/30 02:22:36;;;;;;;26.45;18.33;;;;;;;-0.03;100.00;99805.03;4921558;28;20379;-83
2021/01/30 02:25:21;;;;;;;27.42;21.77;;;;;;;-0.07;100.00;99811.50;4953883;28;20053;-83
2021/01/30 02:28:08;;;;;;;25.77;19.40;;;;;;;-0.01;100.00;99815.44;4954937;28;20047;-83
2021/01/30 02:30:51;;;;;;;25.98;18.48;;;;;;;0.02;100.00;99814.38;4928025;29;20066;-83
2021/01/30 02:33:47;;;;;;;23.30;17.65;;;;;;;-0.08;100.00;99824.81;4944046;28;20083;-83
2021/01/30 02:36:41;;;;;;;24.88;18.23;;;;;;;-0.11;100.00;99825.06;4927903;28;20104;-83
2021/01/30 02:39:16;;;;;;;23.75;16.83;;;;;;;-0.06;100.00;99828.16;4934686;28;20260;-83
2021/01/30 02:41:56;;;;;;;23.30;17.65;;;;;;;-0.14;100.00;99826.13;4924585;29;20039;-83
2021/01/30 02:44:23;;;;;;;26.30;19.15;;;;;;;-0.02;100.00;99829.59;4938992;28;20130;-83
2021/01/30 02:46:54;;;;;;;25.67;18.63;;;;;;;-0.11;100.00;99827.69;4940840;28;20098;-83
2021/01/30 02:49:33;;;;;;;21.42;15.88;;;;;;;-0.06;100.00;99818.47;4938597;28;20063;-83
2021/01/30 02:52:26;;;;;;;19.77;14.35;;;;;;;-0.13;100.00;99822.53;4938652;28;20042;-83
2021/01/30 02:54:57;;;;;;;19.60;15.32;;;;;;;-0.06;100.00;99833.44;4939890;28;20059;-83
2021/01/30 02:57:24;;;;;;;22.45;15.77;;;;;;;-0.02;100.00;99832.25;4937001;28;20409;-83
2021/01/30 02:59:55;;;;;;;19.73;16.38;;;;;;;0.03;100.00;99832.72;4942198;28;20043;-83
2021/01/30 03:02:23;;;;;;;23.60;16.17;;;;;;;-0.01;100.00;99845.31;4937093;28;20466;-83
2021/01/30 03:04:56;;;;;;;20.77;16.65;;;;;;;0.15;100.00;99842.31;4948451;28;20134;-83
2021/01/30 03:07:31;;;;;;;22.45;16.35;;;;;;;0.04;100.00;99850.22;4934707;28;20043;-83
2021/01/30 03:10:06;;;;;;;21.35;15.95;;;;;;;0.08;100.00;99849.03;4934552;29;20550;-83
2021/01/30 03:12:34;;;;;;;22.05;16.10;;;;;;;-0.02;100.00;99862.09;4933613;29;20055;-83
2021/01/30 03:15:16;;;;;;;17.08;13.93;;;;;;;-0.16;100.00;99853.59;4937567;28;20039;-83
2021/01/30 03:17:44;;;;;;;20.30;16.98;;;;;;;-0.04;100.00;99861.38;4940540;28;20043;-83
2021/01/30 03:20:10;;;;;;;20.33;15.27;;;;;;;-0.07;100.00;99851.06;4938385;28;20135;-83
2021/01/30 03:22:37;;;;;;;19.35;15.63;;;;;;;-0.09;100.00;99854.78;4940619;28;20053;-83
2021/01/30 03:25:04;;;;;;;21.02;17.17;;;;;;;0.09;100.00;99853.34;4938922;28;20050;-83
2021/01/30 03:27:32;;;;;;;18.92;14.93;;;;;;;0.07;100.00;99844.72;4945739;29;20079;-83
2021/01/30 03:29:58;;;;;;;20.15;14.82;;;;;;;0.02;100.00;99857.41;4919853;29;20450;-83
2021/01/30 03:32:27;;;;;;;19.02;14.73;;;;;;;-0.07;100.00;99858.97;4959560;28;20039;-84
2021/01/30 03:34:54;;;;;;;19.00;15.63;;;;;;;-0.01;100.00;99862.94;4938601;28;20031;-83
2021/01/30 03:37:20;;;;;;;19.05;15.27;;;;;;;-0.01;100.00;99865.56;4948660;28;20190;-83
2021/01/30 03:39:46;;;;;;;18.33;14.00;;;;;;;-0.03;100.00;99875.38;4938672;28;20043;-83
2021/01/30 03:42:11;;;;;;;17.95;14.27;;;;;;;0.05;100.00;99878.28;4935906;28;20031;-83
2021/01/30 03:44:37;;;;;;;19.27;16.02;;;;;;;0.14;100.00;99885.47;4935906;28;20118;-83
2021/01/30 03:47:03;;;;;;;17.75;14.23;;;;;;;0.20;100.00;99881.50;4936586;29;20174;-83
2021/01/30 03:49:28;;;;;;;17.27;13.70;;;;;;;0.04;100.00;99881.88;4936025;28;20066;-83
2021/01/30 03:51:53;;;;;;;15.70;13.10;;;;;;;0.14;100.00;99888.09;4934341;28;20043;-83
2021/01/30 03:54:19;;;;;;;15.52;12.77;;;;;;;0.06;100.00;99879.97;4933709;28;20055;-83
2021/01/30 03:56:45;;;;;;;16.70;12.88;;;;;;;0.11;100.00;99884.88;4919751;29;20055;-83
2021/01/30 03:59:18;;;;;;;17.52;13.60;;;;;;;0.14;100.00;99887.28;4946809;28;20035;-83
2021/01/30 04:01:43;;;;;;;15.35;13.35;;;;;;;0.04;100.00;99892.44;4933811;29;20068;-83
2021/01/30 04:04:09;;;;;;;18.13;14.70;;;;;;;0.20;100.00;99892.94;4931499;29;20443;-82
2021/01/30 04:06:35;;;;;;;18.02;14.57;;;;;;;0.16;100.00;99895.91;4935383;29;20062;-83
2021/01/30 04:09:01;;;;;;;17.08;14.20;;;;;;;0.02;100.00;99893.50;4934428;28;20059;-83
2021/01/30 04:11:28;;;;;;;16.58;14.05;;;;;;;0.07;100.00;99892.19;4935787;29;20114;-83
2021/01/30 04:13:54;;;;;;;15.70;13.30;;;;;;;0.01;100.00;99891.84;4942046;28;20490;-83
2021/01/30 04:16:20;;;;;;;17.63;13.02;;;;;;;0.05;100.00;99893.28;4937310;28;20575;-83
2021/01/30 04:18:46;;;;;;;15.25;11.80;;;;;;;0.06;100.00;99901.09;4934448;29;20059;-83
2021/01/30 04:21:11;;;;;;;14.80;12.50;;;;;;;0.08;100.00;99899.13;4933599;28;20048;-83
2021/01/30 04:23:37;;;;;;;15.27;11.50;;;;;;;0.07;100.00;99897.47;4933998;28;20414;-83
2021/01/30 04:26:03;;;;;;;15.27;12.63;;;;;;;0.10;100.00;99894.59;4934193;28;20039;-82
2021/01/30 04:28:28;;;;;;;15.13;10.15;;;;;;;0.16;100.00;99894.13;4940262;28;20066;-83
2021/01/30 04:30:54;;;;;;;13.43;10.80;;;;;;;0.10;100.00;99891.97;4934197;28;20495;-83
2021/01/30 04:33:19;;;;;;;13.38;10.60;;;;;;;0.11;100.00;99898.91;4948601;28;20062;-83
2021/01/30 04:35:45;;;;;;;12.40;10.07;;;;;;;0.06;100.00;99901.09;4916224;29;20050;-83
2021/01/30 04:38:10;;;;;;;11.88;10.10;;;;;;;0.04;100.00;99910.06;4942078;28;20043;-83
2021/01/30 04:40:41;;;;;;;12.38;10.50;;;;;;;0.08;100.00;99912.34;4937337;28;20047;-83
2021/01/30 04:43:29;;;;;;;11.50;10.05;;;;;;;0.05;100.00;99915.22;4935585;28;20053;-82
2021/01/30 04:46:23;;;;;;;12.75;10.23;;;;;;;0.14;100.00;99908.38;4934440;28;20074;-83
2021/01/30 04:49:01;;;;;;;12.15;10.48;;;;;;;0.06;100.00;99911.63;4929592;29;20175;-83
2021/01/30 04:51:54;;;;;;;12.13;10.05;;;;;;;0.04;100.00;99904.78;4930247;28;20094;-83
2021/01/30 04:54:35;;;;;;;11.75;9.98;;;;;;;0.08;100.00;99898.31;4931850;29;20067;-83
2021/01/30 04:57:25;;;;;;;11.48;10.07;;;;;;;0.01;100.00;99899.75;4938270;28;20046;-83
2021/01/30 04:59:53;;;;;;;10.98;9.38;;;;;;;0.03;100.00;99893.41;4938952;28;20152;-83
2021/01/30 05:02:29;;;;;;;12.53;9.87;;;;;;;-0.04;100.00;99893.03;4932241;28;20550;-82
2021/01/30 05:04:56;;;;;;;10.25;8.68;;;;;;;-0.11;100.00;99896.28;4930205;29;20786;-83
2021/01/30 05:08:08;;;;;;;11.70;8.57;;;;;;;-0.05;100.00;99899.25;4931711;28;20454;-83
2021/01/30 05:10:39;;;;;;;10.35;8.68;;;;;;;-0.03;100.00;99904.41;4852695;29;20523;-83
2021/01/30 05:13:08;;;;;;;10.23;8.60;;;;;;;-0.05;100.00;99904.53;4917189;29;20111;-83
2021/01/30 05:16:12;;;;;;;;;;;;;;;-0.14;100.00;99899.97;4934853;29;20048;-83
2021/01/30 05:19:01;;;;;;;9.38;6.72;;;;;;;-0.29;100.00;99890.56;4872576;29;19946;-82
2021/01/30 05:21:35;;;;;;;9.65;7.65;;;;;;;-0.26;100.00;99893.84;4896288;29;20044;-83
2021/01/30 05:24:00;;;;;;;9.30;7.45;;;;;;;-0.25;100.00;99906.06;4918275;29;20565;-83
2021/01/30 05:26:58;;;;;;;10.90;7.45;;;;;;;-0.26;100.00;99896.47;4931137;28;20063;-83
2021/01/30 05:29:23;;;;;;;9.73;7.78;;;;;;;-0.20;100.00;99891.66;4931308;28;20039;-83
2021/01/30 05:31:58;;;;;;;8.98;7.38;;;;;;;-0.26;100.00;99901.75;4932636;29;20040;-83
2021/01/30 05:34:33;;;;;;;9.27;7.03;;;;;;;-0.23;100.00;99898.06;4932771;28;20043;-83
2021/01/30 05:37:06;;;;;;;8.80;6.97;;;;;;;-0.28;100.00;99914.22;4934584;28;20043;-83
2021/01/30 05:39:47;;;;;;;10.07;7.00;;;;;;;-0.22;100.00;99907.63;4942926;28;20095;-83
2021/01/30 05:42:28;;;;;;;8.82;6.63;;;;;;;-0.17;100.00;99909.91;4933235;28;20146;-83
2021/01/30 05:45:04;;;;;;;8.65;7.40;;;;;;;-0.22;100.00;99912.06;4931906;28;20027;-83
2021/01/30 05:47:32;;;;;;;11.02;8.05;;;;;;;-0.12;100.00;99903.31;4929645;28;20098;-83
2021/01/30 05:50:02;;;;;;;8.98;7.20;;;;;;;-0.11;100.00;99904.19;4928879;29;20075;-83
2021/01/30 05:52:34;;;;;;;10.00;7.35;;;;;;;-0.12;100.00;99902.47;4929786;29;20051;-83
2021/01/30 05:54:59;;;;;;;9.98;7.32;;;;;;;-0.19;100.00;99904.75;4933140;28;20054;-81
2021/01/30 05:57:25;;;;;;;10.10;7.43;;;;;;;-0.15;100.00;99897.44;4932055;28;20127;-82
2021/01/30 05:59:53;;;;;;;10.32;7.20;;;;;;;-0.25;100.00;99906.06;4941047;28;20077;-81
2021/01/30 06:02:24;;;;;;;10.50;8.02;;;;;;;-0.15;100.00;99900.91;4944491;28;20047;-81
2021/01/30 06:04:50;;;;;;;9.50;7.20;;;;;;;-0.17;100.00;99899.34;4933159;29;20098;-81
2021/01/30 06:07:35;;;;;;;10.63;7.75;;;;;;;-0.25;100.00;99895.50;4929183;29;20064;-81
2021/01/30 06:10:27;;;;;;;11.63;8.20;;;;;;;-0.25;100.00;99897.31;4942025;28;20043;-81
2021/01/30 06:13:08;;;;;;;9.45;7.47;;;;;;;-0.30;100.00;99892.38;4941143;29;20059;-84
2021/01/30 06:15:40;;;;;;;11.48;8.07;;;;;;;-0.25;100.00;99892.88;4929886;29;20055;-82
2021/01/30 06:18:15;;;;;;;13.25;9.02;;;;;;;-0.30;100.00;99897.66;4943937;28;20044;-81
2021/01/30 06:20:41;;;;;;;11.15;8.93;;;;;;;-0.19;100.00;99907.41;4934846;29;20464;-81
2021/01/30 06:23:09;;;;;;;11.48;8.77;;;;;;;-0.21;100.00;99903.19;4926643;29;20123;-82
2021/01/30 06:25:44;;;;;;;9.80;8.07;;;;;;;-0.21;100.00;99908.47;4931209;29;20039;-81
2021/01/30 06:28:27;;;;;;;11.38;8.93;;;;;;;-0.17;100.00;99910.75;4917652;29;20522;-81
2021/01/30 06:30:55;;;;;;;12.30;8.85;;;;;;;-0.15;100.00;99913.25;4934702;28;20043;-81
2021/01/30 06:33:33;;;;;;;12.15;8.32;;;;;;;-0.24;100.00;99922.72;4935194;29;20422;-84
2021/01/30 06:36:14;;;;;;;12.18;9.65;;;;;;;-0.18;100.00;99924.88;4934236;28;20123;-81
2021/01/30 06:38:43;;;;;;;14.02;10.18;;;;;;;-0.15;100.00;99931.72;4927758;28;20055;-82
2021/01/30 06:41:22;;;;;;;12.80;8.60;;;;;;;-0.22;100.00;99933.16;4937619;28;20402;-82
2021/01/30 06:44:19;;;;;;;14.18;8.88;;;;;;;-0.24;100.00;99930.63;4935943;28;20043;-82
2021/01/30 06:47:06;;;;;;;11.95;8.02;;;;;;;-0.26;100.00;99938.66;4924825;29;20582;-84
2021/01/30 06:49:44;;;;;;;12.65;9.02;;;;;;;-0.27;100.00;99929.06;4929141;29;20043;-82
2021/01/30 06:52:15;;;;;;;12.43;9.35;;;;;;;-0.21;100.00;99940.09;4932560;28;20059;-83
2021/01/30 06:54:41;;;;;;;12.18;8.90;;;;;;;-0.26;100.00;99941.31;4921695;29;20043;-82
2021/01/30 06:57:26;;;;;;;11.82;8.80;;;;;;;-0.23;100.00;99942.88;4928619;28;20094;-81
2021/01/30 07:00:23;;;;;;;13.07;9.43;;;;;;;-0.27;100.00;99946.69;4935707;29;20040;-81
2021/01/30 07:02:51;;;;;;;11.35;8.52;;;;;;;-0.25;100.00;99942.97;4923540;29;20043;-83
2021/01/30 07:05:30;;;;;;;11.93;8.68;;;;;;;-0.23;100.00;99953.41;4932094;28;20526;-81
2021/01/30 07:08:29;;;;;;;11.77;8.10;;;;;;;-0.24;100.00;99941.19;4934515;29;20450;-85
2021/01/30 07:10:54;;;;;;;;;;;;;;;-0.27;100.00;99944.03;4926677;29;20052;-82
2021/01/30 07:13:33;;;;;;;12.70;8.50;;;;;;;-0.31;100.00;99945.25;4932353;29;20304;-85
2021/01/30 07:16:26;;;;;;;10.48;7.63;;;;;;;-0.27;100.00;99950.16;4920372;28;20043;-83
2021/01/30 07:19:16;;;;;;;12.55;8.55;;;;;;;-0.20;100.00;99952.31;4935126;28;20427;-83
2021/01/30 07:21:47;;;;;;;10.93;7.97;;;;;;;-0.21;100.00;99953.28;4933957;29;20055;-81
2021/01/30 07:24:21;;;;;;;11.32;8.20;;;;;;;-0.19;100.00;99954.84;4928619;29;20039;-83
2021/01/30 07:27:06;;;;;;;15.45;9.88;;;;;;;-0.13;100.00;99953.56;4932922;28;20052;-84
2021/01/30 07:29:37;;;;;;;13.32;8.77;;;;;;;-0.16;100.00;99965.19;4926093;28;20040;-86
2021/01/30 07:32:17;;;;;;;11.35;7.82;;;;;;;-0.14;100.00;99957.16;4925311;28;20071;-83
2021/01/30 07:35:05;;;;;;;13.30;9.00;;;;;;;-0.12;100.00;99950.78;4933973;28;20046;-83
2021/01/30 07:38:00;;;;;;;14.85;9.30;;;;;;;-0.15;100.00;99952.81;4938946;29;20048;-83
2021/01/30 07:40:34;;;;;;;13.57;9.60;;;;;;;-0.17;100.00;99952.09;4931450;29;20040;-83
2021/01/30 07:43:09;;;;;;;13.80;9.10;;;;;;;-0.20;100.00;99952.31;4955240;28;20398;-84
2021/01/30 07:45:38;;;;;;;14.07;9.18;;;;;;;-0.15;100.00;99952.81;4953702;28;20058;-81
2021/01/30 07:48:24;;;;;;;13.40;9.35;;;;;;;-0.17;100.00;99949.44;4940737;28;20043;-84
2021/01/30 07:50:55;;;;;;;14.05;10.10;;;;;;;-0.18;100.00;99953.88;4918856;29;20512;-86
2021/01/30 07:53:24;;;;;;;15.55;10.52;;;;;;;-0.17;100.00;99954.72;4932513;29;20055;-84
2021/01/30 07:56:12;;;;;;;14.43;9.88;;;;;;;-0.19;100.00;99957.50;4948440;28;20494;-85
2021/01/30 07:58:48;;;;;;;13.23;9.13;;;;;;;-0.23;100.00;99953.41;4929774;29;20050;-85
2021/01/30 08:01:34;;;;;;;12.63;8.52;;;;;;;-0.20;100.00;99953.19;4928337;29;20134;-82
2021/01/30 08:04:11;;;;;;;13.73;10.15;;;;;;;-0.13;100.00;99945.66;4959116;28;20528;-83
2021/01/30 08:07:04;;;;;;;14.38;10.13;;;;;;;-0.08;100.00;99946.13;4939897;29;20050;-86
2021/01/30 08:09:52;;;;;;;16.30;10.43;;;;;;;-0.14;100.00;99946.63;4925617;29;20043;-81
2021/01/30 08:12:23;;;;;;;15.63;10.20;;;;;;;-0.18;100.00;99947.78;4935833;29;20071;-84
2021/01/30 08:15:00;;;;;;;15.35;9.95;;;;;;;-0.25;100.00;99953.53;4948158;29;20039;-81
2021/01/30 08:17:44;;;;;;;15.80;10.68;;;;;;;-0.22;100.00;99952.47;4932858;29;20099;-89
2021/01/30 08:20:14;;;;;;;15.45;9.50;;;;;;;-0.25;100.00;99961.44;4950676;28;20126;-82
2021/01/30 08:23:06;;;;;;;14.43;10.15;;;;;;;-0.15;100.00;99951.03;4958423;28;20051;-85
2021/01/30 08:25:44;;;;;;;12.00;9.77;;;;;;;-0.10;100.00;99950.69;4951670;28;20050;-83
2021/01/30 08:28:23;;;;;;;13.02;9.82;;;;;;;-0.11;100.00;99941.09;4958806;28;20042;-83
2021/01/30 08:30:52;;;;;;;14.15;9.52;;;;;;;-0.15;100.00;99937.00;4945564;28;20039;-83
2021/01/30 08:33:18;;;;;;;12.00;9.23;;;;;;;-0.17;100.00;99946.81;4952891;28;20207;-85
2021/01/30 08:35:47;;;;;;;12.23;9.50;;;;;;;-0.12;100.00;99934.97;4953518;28;20522;-83
2021/01/30 08:38:15;;;;;;;12.45;9.07;;;;;;;-0.15;100.00;99935.19;4961687;28;20039;-82
2021/01/30 08:40:53;;;;;;;12.75;8.93;;;;;;;-0.16;100.00;99936.16;4937058;29;20043;-83
2021/01/30 08:43:37;;;;;;;11.52;8.60;;;;;;;-0.07;100.00;99942.53;4959750;28;20039;-83
2021/01/30 08:46:33;;;;;;;13.52;9.93;;;;;;;-0.07;100.00;99932.00;4958703;28;20043;-84
2021/01/30 08:49:14;;;;;;;13.20;9.45;;;;;;;-0.05;100.00;99928.28;4952903;28;20035;-85
2021/01/30 08:51:41;;;;;;;14.07;9.63;;;;;;;-0.02;100.00;99924.56;4958429;28;20498;-82
2021/01/30 08:54:36;;;;;;;13.45;10.10;;;;;;;-0.08;100.00;99922.41;4938262;28;20051;-82
2021/01/30 08:57:05;;;;;;;11.48;9.15;;;;;;;-0.02;100.00;99919.28;4952628;28;20098;-81
2021/01/30 08:59:49;;;;;;;13.45;9.80;;;;;;;0.02;100.00;99918.09;4957867;28;20039;-84
2021/01/30 09:02:28;;;;;;;13.18;9.55;;;;;;;0.07;100.00;99923.84;4953452;28;20447;-83
2021/01/30 09:05:20;;;;;;;14.10;10.93;;;;;;;0.11;100.00;99925.28;4936737;29;20090;-82
2021/01/30 09:07:49;;;;;;;13.23;9.70;;;;;;;0.12;100.00;99932.25;4918030;29;20515;-82
2021/01/30 09:10:40;;;;;;;13.73;9.85;;;;;;;0.15;100.00;99932.03;4931806;29;20161;-84
2021/01/30 09:13:10;;;;;;;13.00;10.25;;;;;;;0.18;100.00;99931.78;4932272;29;20052;-83
2021/01/30 09:15:41;;;;;;;14.38;10.70;;;;;;;0.21;100.00;99928.91;4934589;29;20060;-81
2021/01/30 09:18:09;;;;;;;13.23;10.13;;;;;;;0.32;100.00;99932.53;4933748;29;20756;-85
2021/01/30 09:20:53;;;;;;;14.93;11.07;;;;;;;0.40;100.00;99936.25;4930228;29;20383;-82
2021/01/30 09:23:48;;;;;;;14.75;10.88;;;;;;;0.37;100.00;99930.34;4929606;28;20058;-85
2021/01/30 09:26:19;;;;;;;14.68;10.73;;;;;;;0.41;100.00;99935.28;4928590;28;20127;-87
2021/01/30 09:28:45;;;;;;;14.73;11.38;;;;;;;0.45;100.00;99933.22;4922813;28;20044;-84
2021/01/30 09:31:16;;;;;;;16.42;12.07;;;;;;;0.43;100.00;99930.72;4919927;29;20581;-85
2021/01/30 09:34:18;;;;;;;16.38;12.13;;;;;;;0.40;100.00;99930.09;4930360;28;20048;-83
2021/01/30 09:36:46;;;;;;;16.25;12.45;;;;;;;0.39;100.00;99936.34;4935172;28;20127;-83
2021/01/30 09:39:23;;;;;;;15.20;11.13;;;;;;;0.35;100.00;99932.28;4928880;29;20063;-87
2021/01/30 09:41:49;;;;;;;14.68;10.45;;;;;;;0.29;100.00;99922.19;4934497;28;20036;-84
2021/01/30 09:44:25;;;;;;;15.85;11.98;;;;;;;0.32;100.00;99927.25;4930047;28;20051;-83
2021/01/30 09:47:01;;;;;;;14.20;10.98;;;;;;;0.28;100.00;99931.91;4938369;28;20039;-81
2021/01/30 09:49:32;;;;;;;14.18;10.60;;;;;;;0.29;99.49;99924.81;4927995;28;20526;-83
2021/01/30 09:52:04;;;;;;;15.55;11.23;;;;;;;0.35;100.00;99925.19;4950194;28;20131;-81
2021/01/30 09:54:29;;;;;;;15.80;12.70;;;;;;;0.44;100.00;99931.56;4932699;28;20123;-81
2021/01/30 09:57:05;;;;;;;13.82;11.13;;;;;;;0.54;100.00;99927.22;4947497;28;20130;-85
2021/01/30 09:59:32;;;;;;;14.70;11.30;;;;;;;0.54;100.00;99932.50;4927247;28;20107;-81
2021/01/30 10:02:16;;;;;;;14.18;11.43;;;;;;;0.62;100.00;99929.25;4930312;29;20114;-84
2021/01/30 10:04:42;;;;;;;16.15;11.82;;;;;;;0.66;100.00;99926.25;4922203;29;20085;-85
2021/01/30 10:07:15;;;;;;;15.45;11.35;;;;;;;0.62;100.00;99930.09;4941136;28;20051;-83
2021/01/30 10:09:44;;;;;;;14.90;11.45;;;;;;;0.68;100.00;99920.84;4925123;28;20078;-84
2021/01/30 10:12:12;;;;;;;15.13;9.55;;;;;;;0.64;98.81;99925.53;4924501;28;20079;-85
2021/01/30 10:14:42;;;;;;;15.10;11.10;;;;;;;0.70;100.00;99911.00;4930016;28;20055;-82
2021/01/30 10:17:15;;;;;;;15.10;10.82;;;;;;;0.67;99.10;99913.91;4950844;28;20048;-90
2021/01/30 10:19:42;;;;;;;13.30;9.48;;;;;;;0.65;98.43;99910.53;4929695;28;20040;-84
2021/01/30 10:22:31;;;;;;;16.92;11.23;;;;;;;0.72;99.81;99918.78;4932996;29;20039;-82
2021/01/30 10:25:01;;;;;;;13.65;11.15;;;;;;;0.72;100.00;99919.66;4934635;29;20036;-82
2021/01/30 10:27:29;;;;;;;14.48;10.45;;;;;;;0.72;99.93;99916.16;4929957;28;20095;-81
2021/01/30 10:29:56;;;;;;;14.68;11.55;;;;;;;0.72;98.67;99916.16;4933456;28;20437;-88
2021/01/30 10:32:49;;;;;;;15.00;11.77;;;;;;;0.82;100.00;99915.31;4925936;29;20040;-82
2021/01/30 10:35:50;;;;;;;15.85;11.07;;;;;;;0.80;99.44;99905.81;4929404;29;20048;-82
2021/01/30 10:38:20;;;;;;;15.68;10.30;;;;;;;0.76;98.54;99907.03;4923424;29;20487;-81
2021/01/30 10:40:50;;;;;;;14.77;10.30;;;;;;;0.78;98.96;99907.75;4930719;28;20574;-83
2021/01/30 10:43:20;;;;;;;11.75;8.77;;;;;;;0.78;97.72;99910.41;4932160;28;21232;-85
2021/01/30 10:45:53;;;;;;;11.90;8.93;;;;;;;0.82;98.79;99906.53;4931070;28;20040;-88
2021/01/30 10:48:22;;;;;;;11.95;8.02;;;;;;;0.83;97.93;99905.56;4941290;28;20107;-81
2021/01/30 10:50:48;;;;;;;12.32;8.35;;;;;;;0.79;96.66;99904.16;4934511;29;20047;-82
2021/01/30 10:53:38;;;;;;;13.68;9.43;;;;;;;0.86;98.03;99900.03;4934782;28;20050;-84
2021/01/30 10:56:25;;;;;;;12.15;8.80;;;;;;;0.88;98.37;99906.03;4929663;28;20631;-84
2021/01/30 10:58:54;;;;;;;10.43;7.40;;;;;;;0.88;96.97;99895.47;4934597;28;20047;-82
2021/01/30 11:01:19;;;;;;;12.18;8.32;;;;;;;0.95;97.54;99893.16;4931903;29;20044;-82
2021/01/30 11:03:45;;;;;;;12.00;8.38;;;;;;;1.05;97.10;99894.09;4936328;28;20395;-84
2021/01/30 11:06:15;;;;;;;11.88;8.27;;;;;;;1.17;97.43;99886.97;4926441;28;20047;-84
2021/01/30 11:08:41;;;;;;;11.32;8.00;;;;;;;1.17;95.43;99892.25;4935291;29;20477;-82
2021/01/30 11:11:25;;;;;;;11.70;8.45;;;;;;;1.24;97.79;99889.00;4932436;28;20042;-82
2021/01/30 11:13:51;;;;;;;11.18;7.63;;;;;;;1.24;95.95;99894.28;4931175;28;20063;-87
2021/01/30 11:16:25;;;;;;;11.70;9.00;;;;;;;1.38;97.14;99890.47;4950012;28;20128;-83
2021/01/30 11:18:51;;;;;;;12.02;8.93;;;;;;;1.54;98.29;99893.53;4951460;28;20517;-86
2021/01/30 11:21:37;;;;;;;13.10;8.40;;;;;;;1.48;95.60;99896.69;4952531;28;20039;-85
2021/01/30 11:24:25;;;;;;;11.85;9.13;;;;;;;1.38;95.32;99882.53;4962620;28;20455;-84
2021/01/30 11:26:51;;;;;;;12.47;9.50;;;;;;;1.33;96.71;99882.13;4955187;28;20579;-81
2021/01/30 11:29:42;;;;;;;13.20;8.93;;;;;;;1.29;96.18;99875.38;4952346;28;20287;-86
2021/01/30 11:32:12;;;;;;;13.48;9.73;;;;;;;1.37;96.63;99883.53;4950223;28;20513;-81
2021/01/30 11:34:39;;;;;;;13.48;9.35;;;;;;;1.39;97.02;99889.53;4950499;28;20075;-85
2021/01/30 11:37:06;;;;;;;13.35;8.95;;;;;;;1.32;96.79;99881.28;4955048;28;20035;-83
2021/01/30 11:39:34;;;;;;;12.13;8.68;;;;;;;1.27;95.73;99887.91;4943163;29;20118;-83
2021/01/30 11:42:00;;;;;;;14.07;9.13;;;;;;;1.21;94.83;99888.41;4955248;28;20032;-83
2021/01/30 11:44:26;;;;;;;15.32;9.98;;;;;;;1.19;95.76;99882.41;4958664;28;20521;-84
2021/01/30 11:46:53;;;;;;;14.88;10.27;;;;;;;1.28;97.93;99873.72;4916637;28;20504;-85
2021/01/30 11:49:19;;;;;;;12.80;9.65;;;;;;;1.30;97.27;99866.50;4914545;28;20103;-83